Time;durP1;ratioP1;P1;durP2;ratioP2;P2;SDS_P1;SDS_P2;PMS_P1;PMS_P2;Temp;Humidity;BMP_temperature;BMP_pressure;BME280_temperature;BME280_humidity;BME280_pressure;Samples;Min_cycle;Max_cycle;Signal;HPM_P1;HPM_P2
2021/09/01 00:00:37;;;;;;;4.95;4.75;;;;;;;12.98;100.00;102256.28;4400704;32;20088;-69
2021/09/01 00:03:03;;;;;;;4.90;4.70;;;;;;;13.04;100.00;102256.06;4383201;32;20072;-69
2021/09/01 00:05:28;;;;;;;5.85;5.57;;;;;;;13.14;100.00;102262.69;4385549;32;20100;-70
2021/09/01 00:07:53;;;;;;;4.87;4.68;;;;;;;13.25;100.00;102261.44;4389938;32;20087;-69
2021/09/01 00:10:19;;;;;;;4.87;4.68;;;;;;;13.34;100.00;102258.50;4408177;32;20357;-69
2021/09/01 00:12:44;;;;;;;5.20;5.00;;;;;;;13.42;100.00;102255.56;4402450;32;20106;-69
2021/09/01 00:15:11;;;;;;;4.90;4.70;;;;;;;13.13;99.90;102197.75;4409422;32;20124;-70
2021/09/01 00:17:37;;;;;;;5.18;4.87;;;;;;;13.52;99.65;102278.00;4410809;32;20838;-68
2021/09/01 00:20:07;;;;;;;5.05;4.85;;;;;;;13.55;99.62;102257.66;4392203;32;20080;-68
2021/09/01 00:22:33;;;;;;;5.03;4.80;;;;;;;13.53;98.79;102264.78;4407866;32;20161;-68
2021/09/01 00:24:58;;;;;;;4.70;4.50;;;;;;;13.60;98.93;102264.53;4402974;32;20665;-71
2021/09/01 00:27:24;;;;;;;5.15;4.93;;;;;;;13.65;98.28;102267.81;4394050;32;20728;-68
2021/09/01 00:29:49;;;;;;;4.70;4.50;;;;;;;13.02;98.10;102163.03;4407516;32;20798;-68
2021/09/01 00:32:14;;;;;;;5.03;4.72;;;;;;;13.68;98.02;102265.94;4395370;32;20096;-67
2021/09/01 00:34:40;;;;;;;7.03;6.68;;;;;;;13.69;97.28;102274.69;4401325;32;20133;-68
2021/09/01 00:37:05;;;;;;;5.00;4.80;;;;;;;12.72;97.04;102093.94;4377848;32;20635;-69
2021/09/01 00:39:30;;;;;;;6.35;6.05;;;;;;;13.75;97.13;102263.87;4375101;32;20083;-65
2021/09/01 00:41:59;;;;;;;4.65;4.45;;;;;;;13.66;96.70;102248.44;4389195;32;20092;-68
2021/09/01 00:44:27;;;;;;;4.70;4.50;;;;;;;13.65;96.70;102244.97;4389127;32;20709;-72
2021/09/01 00:46:52;;;;;;;4.80;4.60;;;;;;;13.77;96.69;102264.69;4389158;32;20072;-68
2021/09/01 00:49:18;;;;;;;5.05;4.85;;;;;;;13.81;96.18;102263.66;4397554;32;20333;-69
2021/09/01 00:51:44;;;;;;;4.70;4.50;;;;;;;13.83;96.32;102266.22;4397467;32;20335;-69
2021/09/01 00:54:11;;;;;;;4.90;4.70;;;;;;;13.80;95.89;102272.50;4400659;32;20076;-69
2021/09/01 00:56:36;;;;;;;6.32;6.03;;;;;;;13.77;95.62;102262.03;4407000;32;20632;-68
2021/09/01 00:59:01;;;;;;;4.95;4.75;;;;;;;13.85;96.12;102275.81;4390383;32;20072;-69
2021/09/01 01:01:27;;;;;;;5.78;5.43;;;;;;;13.88;95.98;102270.41;4393498;32;20159;-70
2021/09/01 01:03:53;;;;;;;4.75;4.55;;;;;;;13.88;95.77;102269.53;4406819;32;21564;-69
2021/09/01 01:06:21;;;;;;;4.82;4.62;;;;;;;13.89;95.23;102272.12;4409593;32;20069;-68
2021/09/01 01:08:47;;;;;;;5.32;5.12;;;;;;;13.90;95.43;102276.47;4397931;32;20523;-66
2021/09/01 01:11:13;;;;;;;4.60;4.40;;;;;;;13.88;95.07;102275.66;4394448;32;20080;-66
2021/09/01 01:13:38;;;;;;;5.18;4.97;;;;;;;13.85;95.41;102277.56;4418162;32;20057;-66
2021/09/01 01:16:04;;;;;;;5.00;4.80;;;;;;;13.87;95.36;102288.94;4409054;32;20064;-66
2021/09/01 01:18:29;;;;;;;5.15;4.90;;;;;;;13.88;95.43;102265.13;4405766;32;20106;-66
2021/09/01 01:20:55;;;;;;;4.78;4.57;;;;;;;12.63;95.38;102057.41;4411219;32;20077;-66
2021/09/01 01:23:21;;;;;;;4.85;4.65;;;;;;;13.86;95.20;102271.38;4402068;32;20090;-67
2021/09/01 01:25:46;;;;;;;4.80;4.60;;;;;;;13.84;95.52;102274.09;4403217;32;20091;-66
2021/09/01 01:28:12;;;;;;;4.70;4.50;;;;;;;13.88;95.45;102275.66;4422497;32;20694;-67
2021/09/01 01:30:37;;;;;;;5.32;5.03;;;;;;;13.92;95.50;102285.19;4401789;32;20421;-67
2021/09/01 01:33:03;;;;;;;4.60;4.40;;;;;;;13.94;95.03;102293.03;4410601;32;20088;-67
2021/09/01 01:35:39;;;;;;;6.07;5.78;;;;;;;13.94;94.99;102293.91;4393929;32;20188;-66
2021/09/01 01:38:06;;;;;;;4.93;4.72;;;;;;;13.94;94.65;102287.75;4399416;32;20146;-66
2021/09/01 01:40:31;;;;;;;4.72;4.53;;;;;;;13.91;94.83;102287.87;4399722;32;20602;-67
2021/09/01 01:42:57;;;;;;;4.80;4.60;;;;;;;13.66;94.56;102267.75;4392447;32;20085;-66
2021/09/01 01:45:23;;;;;;;4.68;4.47;;;;;;;12.90;95.10;102131.87;4414847;32;20087;-67
2021/09/01 01:47:49;;;;;;;4.55;4.35;;;;;;;13.88;95.05;102288.03;4408657;32;20064;-66
2021/09/01 01:50:14;;;;;;;5.10;4.85;;;;;;;13.84;95.13;102278.50;4397121;32;20632;-66
2021/09/01 01:52:40;;;;;;;6.57;6.28;;;;;;;13.86;95.04;102288.06;4390648;32;20160;-66
2021/09/01 01:55:06;;;;;;;4.85;4.65;;;;;;;13.85;95.52;102281.09;4388891;32;20072;-67
2021/09/01 01:57:32;;;;;;;6.12;5.82;;;;;;;13.67;95.15;102264.22;4397600;32;20157;-67
2021/09/01 01:59:57;;;;;;;4.60;4.40;;;;;;;13.51;95.40;102234.06;4408054;32;20065;-67
2021/09/01 02:02:28;;;;;;;4.78;4.57;;;;;;;13.85;94.96;102296.03;4396833;32;20076;-67
2021/09/01 02:04:54;;;;;;;5.00;4.80;;;;;;;13.81;94.90;102287.41;4396244;32;20068;-67
2021/09/01 02:07:19;;;;;;;4.82;4.62;;;;;;;13.83;95.42;102282.94;4411204;32;20145;-67
2021/09/01 02:09:44;;;;;;;4.50;4.30;;;;;;;13.84;94.88;102294.34;4405638;32;20080;-67
2021/09/01 02:12:10;;;;;;;4.65;4.45;;;;;;;13.87;95.24;102286.28;4400948;32;20137;-67
2021/09/01 02:14:35;;;;;;;4.80;4.60;;;;;;;13.79;95.29;102277.81;4407405;32;20551;-66
2021/09/01 02:17:00;;;;;;;4.95;4.75;;;;;;;13.76;95.19;102276.16;4395083;32;20123;-68
2021/09/01 02:19:26;;;;;;;4.60;4.40;;;;;;;13.85;95.07;102286.38;4414687;32;20068;-69
2021/09/01 02:21:51;;;;;;;5.68;4.72;;;;;;;13.70;94.73;102261.44;4398722;32;20073;-66
2021/09/01 02:24:16;;;;;;;4.62;4.43;;;;;;;13.84;95.02;102289.91;4409126;32;20539;-66
2021/09/01 02:26:42;;;;;;;4.80;4.60;;;;;;;13.90;95.13;102281.75;4395113;32;20101;-67
2021/09/01 02:29:07;;;;;;;4.60;4.40;;;;;;;12.74;94.73;102085.06;4398596;32;20083;-66
2021/09/01 02:31:32;;;;;;;6.78;6.47;;;;;;;13.92;94.72;102277.25;4391335;32;20065;-66
2021/09/01 02:33:58;;;;;;;4.95;4.75;;;;;;;13.94;94.93;102285.97;4394100;32;20061;-66
2021/09/01 02:36:23;;;;;;;4.50;4.30;;;;;;;13.95;94.67;102287.72;4410201;32;20961;-65
2021/09/01 02:38:49;;;;;;;4.70;4.50;;;;;;;13.94;94.56;102285.97;4380397;32;21103;-66
2021/09/01 02:41:14;;;;;;;4.90;4.70;;;;;;;13.95;94.53;102284.19;4395136;32;20454;-66
2021/09/01 02:43:40;;;;;;;6.75;6.45;;;;;;;13.96;94.32;102285.91;4380112;32;20088;-68
2021/09/01 02:46:05;;;;;;;4.80;4.60;;;;;;;13.94;94.23;102282.50;4404661;32;20089;-66
2021/09/01 02:48:30;;;;;;;6.35;6.05;;;;;;;13.85;93.64;102261.75;4388557;32;20083;-66
2021/09/01 02:50:56;;;;;;;5.35;5.15;;;;;;;13.96;93.76;102296.47;4383086;32;20087;-66
2021/09/01 02:53:22;;;;;;;4.72;4.47;;;;;;;13.95;94.42;102279.78;4399308;32;20767;-66
2021/09/01 02:55:47;;;;;;;5.22;5.03;;;;;;;13.96;93.77;102284.13;4391251;32;20150;-66
2021/09/01 02:58:13;;;;;;;4.75;4.55;;;;;;;13.88;93.80;102264.25;4422406;32;20631;-66
2021/09/01 03:00:38;;;;;;;6.75;6.45;;;;;;;14.00;93.85;102284.03;4403958;32;20062;-66
2021/09/01 03:03:03;;;;;;;4.40;4.20;;;;;;;14.01;93.37;102280.44;4382252;32;20207;-66
2021/09/01 03:05:29;;;;;;;6.68;6.37;;;;;;;14.01;93.83;102280.44;4418418;32;20948;-66
2021/09/01 03:07:54;;;;;;;4.87;4.68;;;;;;;13.86;93.49;102253.75;4381964;32;20846;-66
2021/09/01 03:10:20;;;;;;;5.55;5.30;;;;;;;14.03;93.55;102278.59;4421889;32;20072;-66
2021/09/01 03:12:45;;;;;;;5.10;4.70;;;;;;;13.99;93.52;102266.44;4389068;32;20073;-66
2021/09/01 03:15:11;;;;;;;4.68;4.47;;;;;;;14.00;93.65;102265.53;4417849;32;20274;-66
2021/09/01 03:17:36;;;;;;;4.90;4.70;;;;;;;14.04;92.96;102270.63;4384676;32;20587;-65
2021/09/01 03:20:01;;;;;;;5.28;4.93;;;;;;;13.84;92.71;102244.19;4384069;32;20052;-66
2021/09/01 03:22:27;;;;;;;5.20;5.00;;;;;;;13.86;92.75;102242.34;4413282;32;20670;-65
2021/09/01 03:24:52;;;;;;;5.20;5.00;;;;;;;14.06;93.03;102278.50;4379240;32;20085;-66
2021/09/01 03:27:17;;;;;;;4.70;4.50;;;;;;;14.05;93.20;102277.63;4382354;32;20182;-66
2021/09/01 03:29:43;;;;;;;4.80;4.60;;;;;;;13.91;92.92;102262.38;4393256;32;20072;-66
2021/09/01 03:32:08;;;;;;;4.70;4.50;;;;;;;14.02;92.65;102284.81;4393685;32;20076;-66
2021/09/01 03:34:34;;;;;;;6.95;6.65;;;;;;;14.03;92.75;102286.53;4405759;32;21199;-66
2021/09/01 03:36:59;;;;;;;5.30;4.85;;;;;;;14.03;92.75;102286.53;4394689;32;20361;-66
2021/09/01 03:39:24;;;;;;;5.82;5.53;;;;;;;14.03;92.78;102289.16;4409876;32;20524;-66
2021/09/01 03:41:50;;;;;;;4.87;4.68;;;;;;;14.02;92.83;102287.47;4392446;32;20470;-66
2021/09/01 03:44:15;;;;;;;5.10;4.90;;;;;;;14.03;92.49;102289.16;4398580;32;20118;-66
2021/09/01 03:46:41;;;;;;;6.70;6.30;;;;;;;14.01;92.24;102286.59;4394110;32;20064;-66
2021/09/01 03:49:06;;;;;;;4.80;4.60;;;;;;;14.01;92.27;102285.72;4406571;32;20079;-66
2021/09/01 03:51:31;;;;;;;6.35;6.05;;;;;;;13.95;92.87;102292.09;4405962;32;20080;-66
2021/09/01 03:53:57;;;;;;;4.90;4.70;;;;;;;13.91;92.54;102299.31;4390609;32;20556;-66
2021/09/01 03:56:22;;;;;;;4.47;4.28;;;;;;;13.91;92.90;102294.03;4390222;32;20064;-66
2021/09/01 03:58:47;;;;;;;4.90;4.70;;;;;;;13.95;92.48;102297.38;4405138;32;20092;-66
2021/09/01 04:01:13;;;;;;;4.60;4.40;;;;;;;13.92;92.84;102298.37;4411912;32;20076;-67
2021/09/01 04:03:38;;;;;;;6.25;5.95;;;;;;;13.92;92.46;102287.81;4399652;32;20579;-66
2021/09/01 04:06:05;;;;;;;4.70;4.50;;;;;;;13.95;92.54;102297.38;4402575;32;20087;-67
2021/09/01 04:08:30;;;;;;;6.32;6.03;;;;;;;13.93;92.62;102299.22;4420753;32;20085;-66
2021/09/01 04:10:55;;;;;;;4.85;4.65;;;;;;;13.94;92.94;102300.97;4408787;32;20203;-66
2021/09/01 04:13:21;;;;;;;4.80;4.50;;;;;;;13.95;92.99;102306.19;4392082;32;20579;-67
2021/09/01 04:15:46;;;;;;;5.00;4.80;;;;;;;13.93;92.38;102300.13;4403682;32;20067;-67
2021/09/01 04:18:11;;;;;;;4.97;4.78;;;;;;;13.62;93.00;102252.12;4407960;32;20076;-66
2021/09/01 04:20:37;;;;;;;5.65;5.32;;;;;;;13.93;93.07;102301.88;4405701;32;20048;-66
2021/09/01 04:23:02;;;;;;;4.57;4.37;;;;;;;13.91;92.71;102307.22;4407112;32;20088;-66
2021/09/01 04:25:28;;;;;;;4.70;4.50;;;;;;;13.93;92.82;102305.38;4394757;32;20080;-66
2021/09/01 04:27:53;;;;;;;4.80;4.60;;;;;;;13.89;93.13;102308.19;4404718;32;20218;-66
2021/09/01 04:30:18;;;;;;;4.75;4.55;;;;;;;13.91;93.08;102307.22;4393671;32;20088;-68
2021/09/01 04:32:44;;;;;;;4.57;4.37;;;;;;;13.93;92.90;102300.13;4410110;32;20076;-68
2021/09/01 04:35:09;;;;;;;4.65;4.45;;;;;;;13.94;92.15;102320.28;4396434;32;20680;-68
2021/09/01 04:37:35;;;;;;;6.35;6.05;;;;;;;13.74;92.80;102270.09;4408377;32;20071;-68
2021/09/01 04:40:00;;;;;;;4.70;4.50;;;;;;;13.96;92.51;102301.75;4407104;32;20076;-68
2021/09/01 04:42:25;;;;;;;5.35;5.12;;;;;;;12.56;91.71;102091.03;4396655;32;20068;-68
2021/09/01 04:44:51;;;;;;;5.20;5.00;;;;;;;13.98;92.06;102312.25;4406765;32;20088;-68
2021/09/01 04:47:16;;;;;;;4.65;4.45;;;;;;;13.99;92.12;102312.19;4395953;32;20344;-67
2021/09/01 04:49:41;;;;;;;7.37;7.00;;;;;;;13.99;92.46;102306.91;4404669;32;20181;-68
2021/09/01 04:52:07;;;;;;;5.10;4.87;;;;;;;13.95;91.30;102308.81;4390937;32;20080;-68
2021/09/01 04:54:33;;;;;;;5.87;5.60;;;;;;;13.95;91.86;102318.50;4394204;32;20862;-69
2021/09/01 04:56:58;;;;;;;4.60;4.40;;;;;;;13.95;92.01;102314.09;4394457;32;20064;-69
2021/09/01 04:59:23;;;;;;;4.80;4.60;;;;;;;13.95;91.47;102313.22;4393541;32;20061;-72
2021/09/01 05:01:49;;;;;;;5.12;4.93;;;;;;;14.00;91.81;102313.06;4411954;32;20083;-68
2021/09/01 05:04:14;;;;;;;5.10;4.90;;;;;;;14.00;91.26;102315.69;4396727;32;20660;-68
2021/09/01 05:06:39;;;;;;;6.32;6.03;;;;;;;14.00;91.11;102319.19;4403596;32;20444;-69
2021/09/01 05:09:05;;;;;;;5.10;4.80;;;;;;;14.01;91.72;102314.75;4396098;32;20950;-71
2021/09/01 05:11:30;;;;;;;6.43;6.12;;;;;;;14.03;91.17;102315.56;4414600;32;20342;-69
2021/09/01 05:13:55;;;;;;;5.10;4.90;;;;;;;14.03;91.05;102318.19;4402724;32;20080;-68
2021/09/01 05:16:21;;;;;;;5.00;4.80;;;;;;;14.05;91.50;102313.72;4411066;32;20569;-68
2021/09/01 05:18:46;;;;;;;5.00;4.80;;;;;;;14.06;91.21;102323.38;4411146;32;20084;-68
2021/09/01 05:21:13;;;;;;;5.10;4.90;;;;;;;13.63;90.64;102248.56;4422082;32;20072;-69
2021/09/01 05:23:38;;;;;;;6.62;6.32;;;;;;;14.07;90.68;102318.03;4412742;32;20137;-68
2021/09/01 05:26:04;;;;;;;5.18;4.97;;;;;;;14.11;90.91;102318.75;4408355;32;20088;-69
2021/09/01 05:28:32;;;;;;;6.45;6.15;;;;;;;14.15;90.65;102321.22;4399260;32;20724;-71
2021/09/01 05:30:59;;;;;;;4.68;4.47;;;;;;;14.00;90.82;102298.06;4409178;32;20084;-71
2021/09/01 05:33:24;;;;;;;5.03;4.82;;;;;;;14.21;90.40;102324.50;4400383;32;20331;-69
2021/09/01 05:35:49;;;;;;;5.30;5.00;;;;;;;14.23;90.08;102327.94;4395583;32;20681;-72
2021/09/01 05:38:17;;;;;;;4.95;4.75;;;;;;;14.24;89.86;102327.88;4392747;32;20084;-69
2021/09/01 05:40:42;;;;;;;6.87;6.57;;;;;;;14.26;89.46;102322.53;4392183;32;20134;-67
2021/09/01 05:43:08;;;;;;;5.12;4.93;;;;;;;14.28;89.72;102321.53;4395433;32;20582;-69
2021/09/01 05:45:33;;;;;;;7.18;6.87;;;;;;;14.06;89.05;102281.13;4393628;32;20134;-68
2021/09/01 05:47:58;;;;;;;5.10;4.80;;;;;;;14.32;88.27;102317.84;4383887;32;20073;-69
2021/09/01 05:50:24;;;;;;;5.68;5.43;;;;;;;14.33;88.00;102319.59;4407785;32;20076;-68
2021/09/01 05:52:50;;;;;;;4.80;4.60;;;;;;;14.36;88.20;102316.81;4416167;32;20283;-70
2021/09/01 05:55:15;;;;;;;5.07;4.80;;;;;;;14.39;88.07;102314.94;4413187;32;20385;-71
2021/09/01 05:57:43;;;;;;;4.80;4.55;;;;;;;14.42;88.15;102317.47;4403336;32;20077;-70
2021/09/01 06:00:13;;;;;;;5.00;4.80;;;;;;;14.42;88.01;102328.03;4410916;32;20061;-68
2021/09/01 06:02:51;;;;;;;6.95;6.65;;;;;;;14.46;87.39;102321.72;4389842;32;20102;-69
2021/09/01 06:05:17;;;;;;;4.60;4.40;;;;;;;14.52;88.31;102334.66;4420781;32;20487;-69
2021/09/01 06:07:53;;;;;;;6.70;6.40;;;;;;;14.55;88.04;102335.37;4392634;32;20078;-68
2021/09/01 06:10:31;;;;;;;5.28;4.80;;;;;;;14.58;87.49;102333.56;4408269;32;20080;-69
2021/09/01 06:13:01;;;;;;;4.72;4.53;;;;;;;14.61;87.78;102323.69;4411724;32;20092;-70
2021/09/01 06:15:27;;;;;;;5.25;5.00;;;;;;;14.66;87.62;102331.44;4411346;32;20646;-70
2021/09/01 06:17:52;;;;;;;4.85;4.65;;;;;;;14.69;87.26;102332.19;4391830;32;21393;-71
2021/09/01 06:20:18;;;;;;;4.82;4.62;;;;;;;14.64;87.69;102310.38;4391082;32;20099;-72
2021/09/01 06:22:43;;;;;;;5.78;5.47;;;;;;;14.75;86.88;102324.00;4404614;32;21242;-69
2021/09/01 06:25:08;;;;;;;5.15;4.75;;;;;;;14.81;87.00;102324.63;4396687;32;20064;-72
2021/09/01 06:27:34;;;;;;;6.50;6.20;;;;;;;14.68;85.65;102332.25;4401635;32;20061;-71
2021/09/01 06:29:59;;;;;;;4.60;4.40;;;;;;;14.75;85.54;102326.62;4417733;32;20125;-69
2021/09/01 06:32:24;;;;;;;5.20;4.90;;;;;;;14.82;86.05;102321.91;4396048;32;20072;-68
2021/09/01 06:34:50;;;;;;;5.12;4.90;;;;;;;14.87;85.40;102335.78;4394578;32;20073;-68
2021/09/01 06:37:15;;;;;;;5.05;4.85;;;;;;;14.94;84.30;102337.25;4384425;32;20365;-69
2021/09/01 06:39:41;;;;;;;5.10;4.80;;;;;;;14.97;84.17;102338.87;4413040;32;20092;-68
2021/09/01 06:42:07;;;;;;;5.30;5.00;;;;;;;14.40;84.54;102234.81;4410427;32;20088;-73
2021/09/01 06:44:32;;;;;;;6.53;6.22;;;;;;;15.01;84.55;102340.47;4408654;32;20531;-72
2021/09/01 06:46:58;;;;;;;5.50;5.20;;;;;;;15.01;83.84;102337.81;4396867;32;20072;-72
2021/09/01 06:49:23;;;;;;;5.25;4.85;;;;;;;14.88;84.25;102313.72;4405515;32;20081;-69
2021/09/01 06:51:49;;;;;;;5.07;4.80;;;;;;;15.15;83.63;102345.13;4401321;32;20575;-72
2021/09/01 06:54:14;;;;;;;5.62;5.32;;;;;;;15.18;83.49;102349.44;4399481;32;20146;-71
2021/09/01 06:56:40;;;;;;;6.85;6.45;;;;;;;15.20;84.52;102342.28;4404101;32;20578;-70
2021/09/01 06:59:05;;;;;;;4.57;4.37;;;;;;;15.26;84.31;102344.66;4410081;32;20064;-70
2021/09/01 07:01:31;;;;;;;6.53;6.22;;;;;;;15.23;83.57;102336.84;4394000;32;20103;-70
2021/09/01 07:03:56;;;;;;;5.45;5.15;;;;;;;15.29;83.45;102336.56;4402730;32;20088;-70
2021/09/01 07:06:22;;;;;;;5.00;4.80;;;;;;;15.31;83.13;102351.44;4396186;32;20057;-69
2021/09/01 07:08:47;;;;;;;5.75;5.45;;;;;;;14.78;82.45;102267.47;4404541;32;20111;-70
2021/09/01 07:11:12;;;;;;;5.37;5.00;;;;;;;15.40;83.23;102344.87;4396478;32;20098;-70
2021/09/01 07:13:38;;;;;;;7.30;7.00;;;;;;;15.44;82.74;102356.19;4403771;32;20130;-70
2021/09/01 07:16:03;;;;;;;5.10;4.87;;;;;;;15.45;83.15;102349.94;4406562;32;20268;-70
2021/09/01 07:18:29;;;;;;;5.20;5.00;;;;;;;15.45;81.95;102342.00;4408732;32;20145;-68
2021/09/01 07:20:54;;;;;;;4.90;4.70;;;;;;;15.51;82.37;102350.50;4407154;32;20618;-71
2021/09/01 07:23:19;;;;;;;5.40;5.10;;;;;;;15.59;82.81;102352.81;4407114;32;20161;-70
2021/09/01 07:25:45;;;;;;;5.60;5.30;;;;;;;15.72;82.31;102350.47;4408761;32;20056;-68
2021/09/01 07:28:10;;;;;;;5.82;5.53;;;;;;;15.74;81.56;102349.47;4409684;32;20647;-68
2021/09/01 07:30:35;;;;;;;6.97;6.57;;;;;;;15.77;80.49;102358.22;4404756;32;20080;-72
2021/09/01 07:33:01;;;;;;;5.18;4.97;;;;;;;15.86;80.38;102365.72;4396913;32;20096;-71
2021/09/01 07:35:26;;;;;;;5.10;4.90;;;;;;;15.95;80.60;102367.91;4394383;32;20069;-71
2021/09/01 07:37:52;;;;;;;5.22;5.03;;;;;;;15.73;79.77;102326.56;4398866;32;20130;-71
2021/09/01 07:40:18;;;;;;;5.35;5.15;;;;;;;16.00;80.40;102371.22;4407980;32;20187;-71
2021/09/01 07:42:44;;;;;;;5.80;5.50;;;;;;;16.12;79.74;102369.75;4403639;32;20441;-70
2021/09/01 07:45:10;;;;;;;5.20;4.90;;;;;;;16.02;79.41;102379.09;4392638;32;20087;-72
2021/09/01 07:49:47;;;;;;;6.18;5.87;;;;;;;16.25;79.06;102378.78;4465723;31;20164;-70
2021/09/01 07:52:13;;;;;;;5.00;4.80;;;;;;;16.39;78.37;102387.88;4415274;32;20145;-72
2021/09/01 07:54:38;;;;;;;6.75;6.45;;;;;;;16.39;78.58;102388.72;4400869;32;20077;-70
2021/09/01 07:57:03;;;;;;;4.85;4.65;;;;;;;16.36;77.29;102399.47;4393712;32;20204;-70
2021/09/01 07:59:29;;;;;;;6.15;5.85;;;;;;;16.37;77.57;102395.87;4392595;32;20088;-70
2021/09/01 08:01:54;;;;;;;5.37;5.12;;;;;;;16.13;77.14;102359.06;4387341;32;20084;-71
2021/09/01 08:04:20;;;;;;;5.55;5.10;;;;;;;16.20;77.66;102379.97;4397898;32;20065;-71
2021/09/01 08:06:45;;;;;;;5.80;5.30;;;;;;;16.21;76.85;102403.72;4384754;32;21214;-72
2021/09/01 08:09:10;;;;;;;4.85;4.65;;;;;;;16.12;78.61;102401.53;4389263;32;20068;-71
2021/09/01 08:11:36;;;;;;;5.90;5.60;;;;;;;16.13;78.59;102405.87;4404191;32;20072;-71
2021/09/01 08:14:01;;;;;;;5.40;5.10;;;;;;;16.08;78.21;102411.41;4411877;32;20973;-68
2021/09/01 08:16:27;;;;;;;5.10;4.90;;;;;;;16.02;79.30;102411.72;4415810;32;20099;-70
2021/09/01 08:18:53;;;;;;;5.25;4.95;;;;;;;15.92;79.63;102381.31;4385931;32;20654;-70
2021/09/01 08:21:18;;;;;;;5.68;5.37;;;;;;;16.14;80.23;102408.47;4393619;32;20566;-70
2021/09/01 08:23:43;;;;;;;6.50;6.10;;;;;;;16.25;79.24;102425.63;4387944;32;20073;-71
2021/09/01 08:26:09;;;;;;;5.18;4.97;;;;;;;16.21;79.88;102427.56;4385692;32;20072;-70
2021/09/01 08:28:34;;;;;;;5.28;5.05;;;;;;;16.26;80.31;102430.88;4392497;32;20530;-71
2021/09/01 08:31:00;;;;;;;4.90;4.70;;;;;;;16.28;80.80;102428.16;4391628;32;20087;-70
2021/09/01 08:33:25;;;;;;;4.82;4.62;;;;;;;16.29;80.27;102427.19;4392589;32;20660;-70
2021/09/01 08:35:50;;;;;;;5.32;5.03;;;;;;;16.20;80.98;102427.66;4395038;32;21811;-69
2021/09/01 08:38:16;;;;;;;5.70;5.40;;;;;;;16.21;79.85;102409.03;4392509;32;20063;-71
2021/09/01 08:40:41;;;;;;;4.97;4.78;;;;;;;16.34;78.86;102435.78;4391560;32;20068;-65
2021/09/01 08:43:07;;;;;;;5.12;4.85;;;;;;;16.29;79.51;102438.66;4397149;32;20068;-65
2021/09/01 08:45:32;;;;;;;5.10;4.90;;;;;;;16.25;79.65;102428.28;4391412;32;20073;-65
2021/09/01 08:47:57;;;;;;;5.43;5.12;;;;;;;16.20;79.79;102447.06;4391016;32;20323;-66
2021/09/01 08:50:23;;;;;;;5.68;5.37;;;;;;;16.38;79.18;102437.34;4397324;32;20145;-65
2021/09/01 08:52:48;;;;;;;4.90;4.70;;;;;;;16.54;79.01;102430.37;4391172;32;20079;-66
2021/09/01 08:55:14;;;;;;;5.55;4.93;;;;;;;16.65;78.45;102444.88;4403033;32;20056;-66
2021/09/01 08:57:41;;;;;;;5.25;4.95;;;;;;;16.77;78.25;102438.94;4406522;32;20669;-66
2021/09/01 09:00:07;;;;;;;4.95;4.75;;;;;;;16.74;77.26;102431.16;4401594;32;20492;-66
2021/09/01 09:02:33;;;;;;;6.20;5.90;;;;;;;16.65;77.80;102432.47;4397860;32;20502;-64
2021/09/01 09:04:58;;;;;;;5.47;5.18;;;;;;;16.64;77.61;102428.12;4411356;32;20917;-66
2021/09/01 09:07:24;;;;;;;4.93;4.72;;;;;;;16.58;77.82;102431.06;4412247;32;20072;-70
2021/09/01 09:09:49;;;;;;;5.35;5.07;;;;;;;16.59;76.88;102437.22;4393754;32;20586;-68
2021/09/01 09:12:15;;;;;;;4.80;4.60;;;;;;;16.60;77.85;102436.28;4392445;32;20424;-67
2021/09/01 09:14:41;;;;;;;5.12;4.82;;;;;;;16.56;77.86;102438.25;4393956;32;20077;-65
2021/09/01 09:17:19;;;;;;;5.32;5.05;;;;;;;16.65;77.59;102421.88;4400974;32;20155;-64
2021/09/01 09:19:56;;;;;;;4.95;4.75;;;;;;;16.70;77.13;102422.50;4396659;32;20080;-65
2021/09/01 09:22:22;;;;;;;5.00;4.80;;;;;;;16.66;77.37;102431.56;4395972;32;20064;-65
2021/09/01 09:25:09;;;;;;;5.53;5.12;;;;;;;16.37;77.17;102432.97;4405920;32;20071;-66
2021/09/01 09:27:47;;;;;;;6.70;6.40;;;;;;;16.39;77.59;102424.97;4420426;32;20065;-71
2021/09/01 09:30:38;;;;;;;4.87;4.68;;;;;;;16.51;77.25;102433.16;4424479;32;20222;-69
2021/09/01 09:33:03;;;;;;;5.65;5.25;;;;;;;16.53;76.90;102433.09;4415424;32;20108;-73
2021/09/01 09:36:04;;;;;;;6.65;6.25;;;;;;;16.25;77.82;102436.22;4418544;32;20518;-71
2021/09/01 09:38:33;;;;;;;5.12;4.82;;;;;;;16.27;76.90;102432.56;4342855;32;20073;-70
2021/09/01 09:41:00;;;;;;;5.05;4.82;;;;;;;16.31;77.22;102443.87;4411950;32;20072;-70
2021/09/01 09:43:26;;;;;;;5.25;5.03;;;;;;;16.31;77.96;102443.87;4399200;32;20130;-68
2021/09/01 09:46:06;;;;;;;5.35;5.10;;;;;;;16.29;77.36;102445.75;4391037;32;20088;-68
2021/09/01 09:48:31;;;;;;;6.18;5.87;;;;;;;16.26;76.78;102440.59;4396863;32;20515;-71
2021/09/01 09:50:57;;;;;;;5.82;5.50;;;;;;;16.23;75.96;102449.53;4387958;32;20100;-70
2021/09/01 09:53:53;;;;;;;4.95;4.75;;;;;;;16.31;77.52;102447.37;4360176;32;20124;-70
2021/09/01 09:56:22;;;;;;;5.10;4.90;;;;;;;16.34;77.01;102449.91;4397812;32;20522;-71
2021/09/01 09:58:51;;;;;;;5.00;4.80;;;;;;;16.31;77.77;102434.13;4386932;32;20086;-70
2021/09/01 10:01:18;;;;;;;4.80;4.60;;;;;;;16.42;77.91;102446.03;4395146;32;20196;-72
2021/09/01 10:03:43;;;;;;;5.43;5.12;;;;;;;16.22;76.49;102439.91;4398204;32;20076;-72
2021/09/01 10:06:10;;;;;;;4.93;4.72;;;;;;;16.33;77.20;102426.13;4392289;32;20100;-72
2021/09/01 10:08:36;;;;;;;6.22;5.93;;;;;;;16.42;77.45;102425.69;4387230;32;20089;-68
2021/09/01 10:11:04;;;;;;;4.93;4.72;;;;;;;16.43;77.00;102437.13;4390524;32;20154;-70
2021/09/01 10:13:30;;;;;;;5.10;4.90;;;;;;;16.45;75.89;102441.41;4389959;32;20077;-71
2021/09/01 10:16:00;;;;;;;5.12;4.93;;;;;;;16.54;76.38;102445.41;4387096;32;20099;-71
2021/09/01 10:18:25;;;;;;;5.12;4.82;;;;;;;16.60;76.23;102437.16;4390675;32;20405;-68
2021/09/01 10:20:51;;;;;;;5.15;4.95;;;;;;;16.55;76.55;102431.22;4390462;32;20088;-68
2021/09/01 10:23:16;;;;;;;5.35;4.95;;;;;;;16.55;75.10;102431.22;4388588;32;20084;-65
2021/09/01 10:25:45;;;;;;;4.90;4.70;;;;;;;16.49;75.90;102431.53;4390378;32;20633;-65
2021/09/01 10:28:20;;;;;;;5.00;4.80;;;;;;;16.57;76.53;102423.19;4386128;32;20191;-65
2021/09/01 10:31:18;;;;;;;4.70;4.50;;;;;;;16.61;75.63;102428.25;4414464;32;20093;-65
2021/09/01 10:33:47;;;;;;;6.65;6.25;;;;;;;16.70;76.00;102433.09;4406866;32;20077;-64
2021/09/01 10:36:22;;;;;;;5.20;5.00;;;;;;;16.83;75.55;102435.16;4392855;32;20077;-65
2021/09/01 10:38:47;;;;;;;6.03;5.72;;;;;;;16.65;74.43;102421.88;4411802;32;20077;-64
2021/09/01 10:41:12;;;;;;;5.60;5.10;;;;;;;16.87;75.17;102429.63;4390065;32;20077;-66
2021/09/01 10:43:38;;;;;;;5.40;5.10;;;;;;;16.96;74.27;102420.34;4389099;32;20147;-66
2021/09/01 10:46:03;;;;;;;5.45;5.15;;;;;;;17.04;74.27;102425.22;4385438;32;20096;-66
2021/09/01 10:48:29;;;;;;;5.10;4.80;;;;;;;17.09;74.48;102420.56;4380571;32;20717;-65
2021/09/01 10:50:54;;;;;;;5.50;5.20;;;;;;;17.11;73.94;102421.34;4382113;32;20527;-65
2021/09/01 10:53:29;;;;;;;7.12;5.05;;;;;;;17.09;73.60;102410.81;4378371;32;20589;-65
2021/09/01 10:55:58;;;;;;;8.88;5.32;;;;;;;17.07;73.71;102412.69;4397450;32;20080;-65
2021/09/01 10:58:24;;;;;;;5.25;4.97;;;;;;;16.98;74.16;102410.53;4389439;32;20797;-65
2021/09/01 11:00:52;;;;;;;5.25;4.95;;;;;;;16.97;73.62;102405.28;4401650;32;20754;-72
2021/09/01 11:03:40;;;;;;;5.37;5.00;;;;;;;16.48;70.52;102348.50;4391611;32;20143;-72
2021/09/01 11:06:10;;;;;;;5.75;5.45;;;;;;;16.64;70.83;102396.31;4387511;32;20092;-72
2021/09/01 11:08:35;;;;;;;4.90;4.70;;;;;;;16.55;70.82;102376.41;4383835;32;20061;-72
2021/09/01 11:11:00;;;;;;;4.85;4.65;;;;;;;16.74;71.22;102410.81;4384825;32;20146;-71
2021/09/01 11:13:39;;;;;;;5.55;5.20;;;;;;;16.75;72.13;102406.34;4387720;32;20535;-72
2021/09/01 11:16:21;;;;;;;5.00;4.80;;;;;;;16.69;71.88;102406.66;4381225;32;20604;-71
2021/09/01 11:19:06;;;;;;;5.53;5.07;;;;;;;16.69;71.76;102412.81;4378437;32;20403;-72
2021/09/01 11:21:33;;;;;;;6.28;5.95;;;;;;;15.61;71.94;102225.72;4382508;32;20103;-72
2021/09/01 11:23:59;;;;;;;5.40;5.00;;;;;;;16.64;73.39;102406.06;4373929;32;21017;-71